Airfield :
LOGIN :

Register | Disclaimer

   EN    FR    IT 

 










Legend :    VFR   Marginal VFR   IFR   Intensive IFR   Very Intensive IFR
Visi :
Ceiling :
>= 8 km
>= 3000ft
5 to 8 km
1000 to 3000 ft
1500m to 5 km
500 to 1000 ft
800 to 1500m
200 to 500 ft
< 800m
< 200 ft
Symbols :   Thunderstorms  Fog  Heavy snow  Heavy precipitations  Wind > 20 kt
SIGMETs :     Misc.  Thunderstorms  Icing  Turbulence  Mountain Waves  Volcanic Ashes







- Airport Elevation : 80 ft
- IATA code : LPL
- Download approach charts


EGGP - Liverpool John Lennon

CURRENT METAR :
  • 240920Z 26007KT 9999 OVC012 16/14 Q1027

EXPIRED METARs :
  • 240850Z 27006KT 9999 OVC012 16/14 Q1026
  • 240820Z 25004KT 210V280 9999 OVC012 16/14 Q1026
  • 240750Z 24004KT 210V290 9999 BKN012 16/14 Q1026
  • 240720Z VRB02KT 9999 BKN012 16/14 Q1026

TAF AMD TAF EGGP
Valid from the 24 at 07:00 until the 25 at 06:00 UTC


240709Z 2407/2506 VRB03KT 9999 BKN014
BECMG 2408/2410 29010KT SCT030
BECMG 2500/2503 VRB03KT
ATIS : +44 151 907 2000 (option 5 or ext 5150)
Met : +44 871 750 5150
No reported NOTAMs for that airfield.



MET'MAP, your aeronautical weather chart ! - Copyright ORBIFLY December 2007 - Disclaimer

ORBIFLY MET'MAP TEAM :

Programming & Development : Alexandra Zaïnal
Concept & Development : Baudouin d'Aumeries
Co-Development & Prog : Marc-Olivier Méhu
Technical & hardware support : Manuel Goepfert

Contact : metmap@orbifly.com




SOURCES & CREDITS :

   NOAA